FSIA/SEZ METAR and TAF weather

Enter ICAO airport designator
Station Type Date Time Source
FSIA METAR 2023/02/05 15:00 UTC NOAA

FSIA 051500Z 32006KT 9999 FEW023 SCT032 28/22 Q1009 NOSIG


Station Type Date Time Source
FSIA Decoded METAR 2023/02/05 15:00 UTC NOAA

Seychelles Inter-National Airport, Seychelles (FSIA) 04-40S 055-31E 3M
Feb 05, 2023 - 10:00 AM EST / 2023.02.05 1500 UTC
Wind: from the NW (320 degrees) at 7 MPH (6 KT):0
Visibility: greater than 7 mile(s):0
Sky conditions: partly cloudy
Temperature: 82 F (28 C)
Dew Point: 71 F (22 C)
Relative Humidity: 69%
Pressure (altimeter): 29.80 in. Hg (1009 hPa)
ob: FSIA 051500Z 32006KT 9999 FEW023 SCT032 28/22 Q1009 NOSIG
cycle: 15

Station Type Date Time Source
FSIA TAF 2023/02/05 12:12 UTC NOAA

TAF FSIA 051104Z 0512/0612 32012KT 9999 SCT022

Example: see airport list